createdAt,value
2022-08-25T00:00:10.205Z,100965.19
2022-08-25T00:02:37.968Z,100969.72
2022-08-25T00:05:06.657Z,100970.25
2022-08-25T00:07:36.398Z,100975.66
2022-08-25T00:10:05.685Z,100982.81
2022-08-25T00:12:33.545Z,100982.00
2022-08-25T00:15:02.745Z,100977.97
2022-08-25T00:17:30.488Z,100987.59
2022-08-25T00:19:58.248Z,100987.59
2022-08-25T00:22:25.950Z,100988.53
2022-08-25T00:24:53.687Z,100984.56
2022-08-25T00:27:21.802Z,100978.47
2022-08-25T00:29:50.949Z,100981.50
2022-08-25T00:32:20.461Z,100982.69
2022-08-25T00:34:48.269Z,100973.41
2022-08-25T00:37:16.617Z,100965.34
2022-08-25T00:39:44.405Z,100965.13
2022-08-25T00:42:16.232Z,100963.47
2022-08-25T00:44:44.532Z,100967.31
2022-08-25T00:47:12.815Z,100959.00
2022-08-25T00:49:45.734Z,100949.56
2022-08-25T00:52:14.885Z,100940.84
2022-08-25T00:54:48.790Z,100936.00
2022-08-25T00:57:19.446Z,100930.38
2022-08-25T01:00:00.330Z,100933.50
2022-08-25T01:02:28.289Z,100929.41
2022-08-25T01:04:58.277Z,100930.69
2022-08-25T01:07:26.096Z,100940.56
2022-08-25T01:09:54.717Z,100945.84
2022-08-25T01:12:23.438Z,100939.16
2022-08-25T01:14:52.387Z,100951.59
2022-08-25T01:17:21.887Z,100949.88
2022-08-25T01:19:49.625Z,100952.56
2022-08-25T01:22:18.935Z,100952.16
2022-08-25T01:24:57.329Z,100959.44
2022-08-25T01:27:25.109Z,100973.31
2022-08-25T01:29:52.849Z,100968.44
2022-08-25T01:32:20.775Z,100987.31
2022-08-25T01:34:48.662Z,100987.88
2022-08-25T01:37:21.027Z,100998.34
2022-08-25T01:39:49.082Z,101005.59
2022-08-25T01:42:33.805Z,101019.19
2022-08-25T01:45:01.570Z,101017.19
2022-08-25T01:47:29.413Z,101031.09
2022-08-25T01:49:57.187Z,101035.00
2022-08-25T01:52:30.901Z,101026.59
2022-08-25T01:54:58.716Z,101023.75
2022-08-25T01:57:26.569Z,101019.91
2022-08-25T01:59:54.293Z,101024.34
2022-08-25T02:02:22.074Z,101027.06
2022-08-25T02:04:50.699Z,101032.34
2022-08-25T02:07:19.171Z,101031.66
2022-08-25T02:09:48.278Z,101039.66
2022-08-25T02:12:16.023Z,101029.34
2022-08-25T02:14:43.806Z,101027.63
2022-08-25T02:17:11.542Z,101013.34
2022-08-25T02:19:39.483Z,101012.09
2022-08-25T02:22:07.449Z,101005.47
2022-08-25T02:24:35.229Z,101004.63
2022-08-25T02:27:04.835Z,100991.16
2022-08-25T02:29:32.698Z,100990.47
2022-08-25T02:32:00.457Z,100990.75
2022-08-25T02:34:28.230Z,100975.31
2022-08-25T02:36:55.977Z,100970.00
2022-08-25T02:39:23.710Z,100966.31
2022-08-25T02:41:51.465Z,100963.72
2022-08-25T02:44:20.754Z,100952.56
2022-08-25T02:46:48.473Z,100946.00
2022-08-25T02:49:16.324Z,100930.41
2022-08-25T02:51:44.086Z,100926.72
2022-08-25T02:54:11.959Z,100919.28
2022-08-25T02:56:40.165Z,100925.72
2022-08-25T02:59:07.912Z,100911.56
2022-08-25T03:01:37.082Z,100909.78
2022-08-25T03:04:05.154Z,100916.56
2022-08-25T03:06:32.996Z,100919.66
2022-08-25T03:09:01.404Z,100917.78
2022-08-25T03:11:29.242Z,100925.78
2022-08-25T03:13:57.098Z,100921.06
2022-08-25T03:16:27.647Z,100906.66
2022-08-25T03:18:57.661Z,100912.66
2022-08-25T03:21:25.760Z,100910.44
2022-08-25T03:23:53.553Z,100906.44
2022-08-25T03:26:38.545Z,100911.88
2022-08-25T03:29:07.193Z,100923.00
2022-08-25T03:31:36.590Z,100924.88
2022-08-25T03:34:06.389Z,100920.56
2022-08-25T03:36:34.110Z,100930.28
2022-08-25T03:39:02.002Z,100923.84
2022-08-25T03:41:32.648Z,100921.28
2022-08-25T03:44:01.236Z,100921.59
2022-08-25T03:46:31.119Z,100922.56
2022-08-25T03:49:02.026Z,100922.31
2022-08-25T03:51:33.316Z,100932.16
2022-08-25T03:54:02.081Z,100938.72
2022-08-25T03:56:29.909Z,100939.41
2022-08-25T03:58:58.266Z,100973.03
2022-08-25T04:01:27.260Z,100992.91
2022-08-25T04:03:55.532Z,100997.66
2022-08-25T04:06:24.149Z,101008.66
2022-08-25T04:08:53.524Z,101001.09
2022-08-25T04:11:22.913Z,101001.34
2022-08-25T04:13:50.704Z,101008.22
2022-08-25T04:16:20.868Z,101007.75
2022-08-25T04:18:50.385Z,101006.22
2022-08-25T04:21:20.176Z,101011.34
2022-08-25T04:23:49.027Z,101011.94
2022-08-25T04:26:21.102Z,101017.94
2022-08-25T04:28:49.452Z,101022.34
2022-08-25T04:31:18.360Z,101020.34
2022-08-25T04:33:47.985Z,101015.94
2022-08-25T04:36:17.576Z,101010.03
2022-08-25T04:38:46.859Z,101014.34
2022-08-25T04:41:16.257Z,101012.91
2022-08-25T04:43:46.303Z,101018.75
2022-08-25T04:46:20.183Z,101023.22
2022-08-25T04:48:49.504Z,101029.63
2022-08-25T04:51:20.096Z,101025.78
2022-08-25T04:53:48.001Z,101034.19
2022-08-25T04:56:18.083Z,101029.63
2022-08-25T04:58:47.419Z,101025.88
2022-08-25T05:01:18.316Z,101009.03
2022-08-25T05:03:46.753Z,100976.47
2022-08-25T05:06:16.523Z,100964.16
2022-08-25T05:08:45.736Z,100956.84
2022-08-25T05:11:17.341Z,100956.16
2022-08-25T05:13:51.654Z,100944.44
2022-08-25T05:16:20.784Z,100946.94
2022-08-25T05:18:48.960Z,100941.22
2022-08-25T05:21:19.025Z,100936.59
2022-08-25T05:23:48.032Z,100934.00
2022-08-25T05:26:20.255Z,100944.00
2022-08-25T05:28:50.790Z,100968.53
2022-08-25T05:31:19.893Z,100973.13
2022-08-25T05:33:48.004Z,100971.66
2022-08-25T05:36:17.123Z,100965.94
2022-08-25T05:38:45.217Z,100984.50
2022-08-25T05:41:17.467Z,100990.34
2022-08-25T05:43:46.919Z,100981.19
2022-08-25T05:46:21.142Z,100979.22
2022-08-25T05:48:49.954Z,100992.91
2022-08-25T05:51:18.398Z,100995.69
2022-08-25T05:53:48.418Z,100999.56
2022-08-25T05:56:16.497Z,101001.84
2022-08-25T05:58:45.838Z,101011.50
2022-08-25T06:01:43.499Z,101018.44
2022-08-25T06:04:13.316Z,101026.19
2022-08-25T06:06:41.357Z,101015.59
2022-08-25T06:09:10.355Z,101027.31
2022-08-25T06:11:39.732Z,101039.72
2022-08-25T06:14:08.218Z,101030.75
2022-08-25T06:16:38.852Z,101044.16
2022-08-25T06:19:07.873Z,101047.34
2022-08-25T06:21:35.704Z,101050.06
2022-08-25T06:24:03.638Z,101057.31
2022-08-25T06:26:31.453Z,101063.41
2022-08-25T06:28:59.210Z,101072.19
2022-08-25T06:31:27.106Z,101068.78
2022-08-25T06:33:56.303Z,101085.38
2022-08-25T06:36:24.047Z,101088.75
2022-08-25T06:38:53.582Z,101095.72
2022-08-25T06:41:21.384Z,101092.66
2022-08-25T06:43:52.897Z,101079.84
2022-08-25T06:46:35.975Z,101086.84
2022-08-25T06:49:06.772Z,101094.66
2022-08-25T06:51:36.051Z,101090.66
2022-08-25T06:54:04.931Z,101088.50
2022-08-25T06:56:32.712Z,101089.97
2022-08-25T06:59:02.072Z,101096.41
2022-08-25T07:01:31.804Z,101099.44
2022-08-25T07:04:01.745Z,101092.59
2022-08-25T07:06:35.353Z,101085.59
2022-08-25T07:09:04.122Z,101096.34
2022-08-25T07:11:34.241Z,101101.72
2022-08-25T07:14:03.013Z,101108.44
2022-08-25T07:16:31.485Z,101109.63
2022-08-25T07:19:00.196Z,101100.34
2022-08-25T07:21:33.700Z,101098.16
2022-08-25T07:24:06.734Z,101095.75
2022-08-25T07:26:38.604Z,101101.59
2022-08-25T07:29:10.472Z,101110.19
2022-08-25T07:31:38.923Z,101113.31
2022-08-25T07:34:25.620Z,101115.63
2022-08-25T07:36:55.592Z,101130.22
2022-08-25T07:39:23.755Z,101126.66
2022-08-25T07:41:52.824Z,101131.53
2022-08-25T07:44:22.256Z,101129.34
2022-08-25T07:46:50.631Z,101138.53
2022-08-25T07:49:23.339Z,101127.34
2022-08-25T07:52:05.427Z,101120.78
2022-08-25T07:54:37.949Z,101124.56
2022-08-25T07:57:07.930Z,101120.97
2022-08-25T07:59:39.862Z,101126.97
2022-08-25T08:02:18.543Z,101135.72
2022-08-25T08:04:48.952Z,101140.75
2022-08-25T08:07:19.141Z,101143.97
2022-08-25T08:09:56.197Z,101141.25
2022-08-25T08:12:34.695Z,101138.72
2022-08-25T08:15:04.175Z,101151.78
2022-08-25T08:17:38.923Z,101138.38
2022-08-25T08:20:08.853Z,101151.25
2022-08-25T08:22:36.821Z,101153.19
2022-08-25T08:25:08.562Z,101154.06
2022-08-25T08:27:39.342Z,101154.28
2022-08-25T08:30:08.326Z,101159.47
2022-08-25T08:33:05.820Z,101160.16
2022-08-25T08:35:24.577Z,101163.41
2022-08-25T08:37:53.942Z,101163.13
2022-08-25T08:40:23.324Z,101167.78
2022-08-25T08:43:03.970Z,101162.19
2022-08-25T08:45:40.550Z,101174.97
2022-08-25T08:48:42.737Z,101166.41
2022-08-25T08:51:23.140Z,101167.41
2022-08-25T08:53:57.236Z,101173.19
2022-08-25T08:56:31.481Z,101180.28
2022-08-25T08:59:06.608Z,101172.50
2022-08-25T09:01:41.133Z,101172.84
2022-08-25T09:04:14.402Z,101169.06
2022-08-25T09:06:44.281Z,101169.34
2022-08-25T09:09:15.934Z,101179.38
2022-08-25T09:11:57.972Z,101181.84
2022-08-25T09:14:42.822Z,101176.56
2022-08-25T09:17:21.569Z,101178.66
2022-08-25T09:20:18.914Z,101183.09
2022-08-25T09:22:57.548Z,101189.47
2022-08-25T09:25:52.665Z,101197.63
2022-08-25T09:28:30.023Z,101201.09
2022-08-25T09:31:01.152Z,101196.22
2022-08-25T09:33:34.228Z,101200.13
2022-08-25T09:36:04.654Z,101205.69
2022-08-25T09:38:35.027Z,101205.03
2022-08-25T09:41:03.695Z,101207.59
2022-08-25T09:43:34.786Z,101209.34
2022-08-25T09:46:10.370Z,101209.59
2022-08-25T09:48:46.437Z,101199.94
2022-08-25T09:51:22.301Z,101211.31
2022-08-25T09:53:55.765Z,101208.72
2022-08-25T09:56:27.503Z,101208.47
2022-08-25T09:59:03.076Z,101209.59
2022-08-25T10:01:34.663Z,101207.13
2022-08-25T10:04:04.723Z,101208.31
2022-08-25T10:06:38.616Z,101206.63
2022-08-25T10:09:08.084Z,101207.22
2022-08-25T10:11:43.543Z,101203.44
2022-08-25T10:14:22.471Z,101204.78
2022-08-25T10:16:53.371Z,101200.19
2022-08-25T10:19:27.253Z,101205.66
2022-08-25T10:22:08.217Z,101201.78
2022-08-25T10:24:43.879Z,101195.47
2022-08-25T10:27:23.824Z,101204.44
2022-08-25T10:30:07.892Z,101197.75
2022-08-25T10:32:49.158Z,101198.25
2022-08-25T10:35:20.340Z,101198.69
2022-08-25T10:38:02.205Z,101201.66
2022-08-25T10:40:36.421Z,101201.06
2022-08-25T10:43:12.086Z,101207.94
2022-08-25T10:45:47.873Z,101197.66
2022-08-25T10:48:41.812Z,101204.50
2022-08-25T10:51:27.265Z,101202.38
2022-08-25T10:54:02.422Z,101207.06
2022-08-25T10:56:37.036Z,101198.91
2022-08-25T10:59:23.667Z,101216.78
2022-08-25T11:02:12.821Z,101216.81
2022-08-25T11:04:45.064Z,101216.81
2022-08-25T11:07:24.546Z,101215.72
2022-08-25T11:09:54.766Z,101219.78
2022-08-25T11:12:29.765Z,101209.97
2022-08-25T11:15:00.940Z,101215.28
2022-08-25T11:17:39.613Z,101218.69
2022-08-25T11:20:16.319Z,101210.66
2022-08-25T11:23:06.897Z,101211.50
2022-08-25T11:25:38.420Z,101219.41
2022-08-25T11:28:12.812Z,101218.94
2022-08-25T11:30:41.458Z,101218.66
2022-08-25T11:33:13.881Z,101208.84
2022-08-25T11:35:44.897Z,101221.94
2022-08-25T11:38:29.067Z,101222.06
2022-08-25T11:41:11.930Z,101225.28
2022-08-25T11:44:06.746Z,101228.78
2022-08-25T11:46:52.973Z,101228.53
2022-08-25T11:49:50.112Z,101225.41
2022-08-25T11:52:42.661Z,101230.69
2022-08-25T11:55:14.609Z,101233.53
2022-08-25T11:57:44.692Z,101231.72
2022-08-25T12:00:17.520Z,101239.28
2022-08-25T12:02:47.341Z,101244.72
2022-08-25T12:05:52.883Z,101244.84
2022-08-25T12:08:57.547Z,101248.31
2022-08-25T12:11:47.855Z,101243.56
2022-08-25T12:14:19.025Z,101250.63
2022-08-25T12:17:06.877Z,101246.75
2022-08-25T12:19:50.949Z,101236.59
2022-08-25T12:23:00.046Z,101242.88
2022-08-25T12:25:39.557Z,101248.16
2022-08-25T12:28:28.495Z,101244.84
2022-08-25T12:31:09.019Z,101262.53
2022-08-25T12:33:49.067Z,101257.81
2022-08-25T12:36:31.015Z,101254.06
2022-08-25T12:39:19.200Z,101261.22
2022-08-25T12:41:54.169Z,101261.19
2022-08-25T12:44:38.203Z,101270.31
2022-08-25T12:47:27.002Z,101265.97
2022-08-25T12:49:55.673Z,101266.25
2022-08-25T12:52:28.104Z,101270.50
2022-08-25T12:55:00.506Z,101260.38
2022-08-25T12:57:40.640Z,101258.97
2022-08-25T13:00:18.428Z,101266.13
2022-08-25T13:03:28.165Z,101274.84
2022-08-25T13:06:23.239Z,101274.81
2022-08-25T13:09:27.052Z,101266.44
2022-08-25T13:12:03.494Z,101276.94
2022-08-25T13:14:38.324Z,101276.19
2022-08-25T13:17:07.621Z,101271.88
2022-08-25T13:19:38.040Z,101274.88
2022-08-25T13:22:16.349Z,101275.81
2022-08-25T13:27:25.129Z,101278.91
2022-08-25T13:29:56.644Z,101286.47
2022-08-25T13:32:32.060Z,101286.91
2022-08-25T13:35:14.193Z,101278.56
2022-08-25T13:37:41.130Z,101295.22
2022-08-25T13:40:17.860Z,101291.47
2022-08-25T13:42:55.468Z,101287.91
2022-08-25T13:45:26.423Z,101288.88
2022-08-25T13:47:55.897Z,101302.69
2022-08-25T13:50:34.218Z,101300.44
2022-08-25T13:53:04.896Z,101306.50
2022-08-25T13:55:38.209Z,101300.09
2022-08-25T13:58:24.972Z,101296.03
2022-08-25T14:01:22.365Z,101299.63
2022-08-25T14:04:24.242Z,101300.94
2022-08-25T14:07:13.717Z,101302.25
2022-08-25T14:09:48.764Z,101300.09
2022-08-25T14:12:47.529Z,101288.47
2022-08-25T14:15:32.481Z,101292.44
2022-08-25T14:18:05.393Z,101294.78
2022-08-25T14:20:34.934Z,101299.50
2022-08-25T14:23:07.894Z,101297.69
2022-08-25T14:25:40.476Z,101307.63
2022-08-25T14:28:13.782Z,101304.28
2022-08-25T14:30:46.517Z,101300.78
2022-08-25T14:33:16.463Z,101307.34
2022-08-25T14:35:47.454Z,101302.91
2022-08-25T14:38:15.984Z,101300.28
2022-08-25T14:40:45.128Z,101308.78
2022-08-25T14:43:13.367Z,101307.03
2022-08-25T14:45:45.999Z,101310.22
2022-08-25T14:48:21.530Z,101298.47
2022-08-25T14:50:49.286Z,101297.25
2022-08-25T14:53:18.471Z,101307.44
2022-08-25T14:55:46.277Z,101316.53
2022-08-25T14:58:14.101Z,101306.50
2022-08-25T15:00:46.005Z,101309.72
2022-08-25T15:03:17.490Z,101309.38
2022-08-25T15:05:46.279Z,101304.97
2022-08-25T15:08:33.468Z,101315.00
2022-08-25T15:11:01.814Z,101309.09
2022-08-25T15:13:36.650Z,101323.88
2022-08-25T15:16:07.071Z,101320.38
2022-08-25T15:18:34.889Z,101321.44
2022-08-25T15:21:02.853Z,101319.78
2022-08-25T15:23:30.885Z,101325.78
2022-08-25T15:25:58.727Z,101327.94
2022-08-25T15:28:26.560Z,101326.38
2022-08-25T15:30:54.588Z,101327.94
2022-08-25T15:33:23.827Z,101324.28
2022-08-25T15:35:51.602Z,101341.28
2022-08-25T15:38:20.624Z,101336.94
2022-08-25T15:40:48.402Z,101332.88
2022-08-25T15:43:16.157Z,101346.06
2022-08-25T15:45:44.492Z,101332.25
2022-08-25T15:48:14.318Z,101330.81
2022-08-25T15:50:44.010Z,101335.69
2022-08-25T15:53:11.796Z,101340.56
2022-08-25T15:55:42.962Z,101337.00
2022-08-25T15:58:12.007Z,101336.84
2022-08-25T16:00:40.068Z,101334.72
2022-08-25T16:03:10.323Z,101344.28
2022-08-25T16:05:38.862Z,101340.25
2022-08-25T16:08:19.047Z,101335.47
2022-08-25T16:10:47.597Z,101338.16
2022-08-25T16:13:15.560Z,101346.75
2022-08-25T16:15:53.111Z,101351.97
2022-08-25T16:18:22.370Z,101354.03
2022-08-25T16:20:50.928Z,101352.16
2022-08-25T16:23:21.432Z,101357.47
2022-08-25T16:25:49.563Z,101357.84
2022-08-25T16:28:20.574Z,101345.44
2022-08-25T16:30:52.746Z,101352.03
2022-08-25T16:33:21.753Z,101360.91
2022-08-25T16:35:50.159Z,101360.28
2022-08-25T16:38:18.687Z,101353.06
2022-08-25T16:40:48.453Z,101349.94
2022-08-25T16:43:17.711Z,101362.63
2022-08-25T16:45:46.337Z,101345.69
2022-08-25T16:48:18.149Z,101358.16
2022-08-25T16:50:46.607Z,101363.78
2022-08-25T16:53:46.127Z,101361.34
2022-08-25T16:56:35.112Z,101367.81
2022-08-25T16:59:04.680Z,101355.44
2022-08-25T17:01:35.585Z,101359.06
2022-08-25T17:04:04.584Z,101370.28
2022-08-25T17:06:37.680Z,101364.41
2022-08-25T17:09:07.046Z,101363.69
2022-08-25T17:11:43.008Z,101365.22
2022-08-25T17:14:11.424Z,101367.22
2022-08-25T17:16:39.343Z,101365.25
2022-08-25T17:19:12.610Z,101362.66
2022-08-25T17:21:44.921Z,101364.38
2022-08-25T17:24:15.192Z,101372.09
2022-08-25T17:26:47.156Z,101365.75
2022-08-25T17:29:14.910Z,101366.53
2022-08-25T17:31:44.544Z,101371.38
2022-08-25T17:34:16.307Z,101369.13
2022-08-25T17:36:45.209Z,101371.97
2022-08-25T17:39:14.630Z,101380.16
2022-08-25T17:41:45.114Z,101381.59
2022-08-25T17:44:13.418Z,101370.00
2022-08-25T17:46:47.342Z,101368.38
2022-08-25T17:49:15.988Z,101366.47
2022-08-25T17:51:43.816Z,101371.19
2022-08-25T17:54:13.252Z,101373.56
2022-08-25T17:56:41.243Z,101371.19
2022-08-25T17:59:11.902Z,101374.91
2022-08-25T18:01:40.693Z,101370.66
2022-08-25T18:04:14.280Z,101366.44
2022-08-25T18:06:46.614Z,101371.97
2022-08-25T18:09:14.469Z,101373.72
2022-08-25T18:11:42.380Z,101379.06
2022-08-25T18:14:12.603Z,101375.94
2022-08-25T18:16:42.276Z,101380.72
2022-08-25T18:19:10.723Z,101375.38
2022-08-25T18:21:39.218Z,101376.09
2022-08-25T18:24:07.328Z,101383.66
2022-08-25T18:26:36.284Z,101370.94
2022-08-25T18:29:04.132Z,101387.63
2022-08-25T18:31:33.432Z,101380.81
2022-08-25T18:34:02.166Z,101378.47
2022-08-25T18:36:30.031Z,101380.72
2022-08-25T18:39:15.484Z,101389.38
2022-08-25T18:41:45.017Z,101393.03
2022-08-25T18:44:15.422Z,101395.75
2022-08-25T18:46:45.532Z,101390.47
2022-08-25T18:49:15.835Z,101388.72
2022-08-25T18:51:44.731Z,101400.88
2022-08-25T18:54:22.697Z,101403.81
2022-08-25T18:56:52.311Z,101410.47
2022-08-25T18:59:20.279Z,101411.22
2022-08-25T19:01:53.835Z,101404.19
2022-08-25T19:04:28.528Z,101411.22
2022-08-25T19:06:59.857Z,101401.09
2022-08-25T19:09:27.709Z,101409.50
2022-08-25T19:11:57.028Z,101410.69
2022-08-25T19:14:26.417Z,101412.44
2022-08-25T19:16:57.884Z,101403.97
2022-08-25T19:19:26.305Z,101404.19
2022-08-25T19:21:54.069Z,101417.13
2022-08-25T19:24:22.039Z,101419.56
2022-08-25T19:26:53.828Z,101424.16
2022-08-25T19:29:23.522Z,101421.28
2022-08-25T19:31:53.178Z,101424.75
2022-08-25T19:34:30.376Z,101431.03
2022-08-25T19:36:59.288Z,101436.31
2022-08-25T19:39:27.373Z,101433.09
2022-08-25T19:41:56.606Z,101435.31
2022-08-25T19:44:26.131Z,101442.66
2022-08-25T19:46:56.216Z,101451.16
2022-08-25T19:49:31.437Z,101446.84
2022-08-25T19:52:00.558Z,101444.94
2022-08-25T19:54:30.860Z,101457.47
2022-08-25T19:56:59.218Z,101452.28
2022-08-25T19:59:40.835Z,101452.06
2022-08-25T20:02:15.262Z,101451.41
2022-08-25T20:04:49.792Z,101452.75
2022-08-25T20:07:18.905Z,101461.63
2022-08-25T20:09:46.885Z,101461.34
2022-08-25T20:14:48.098Z,101453.06
2022-08-25T20:17:24.560Z,101459.16
2022-08-25T20:19:56.986Z,101465.44
2022-08-25T20:22:26.996Z,101455.06
2022-08-25T20:24:57.893Z,101461.63
2022-08-25T20:27:33.019Z,101469.81
2022-08-25T20:30:02.533Z,101457.88
2022-08-25T20:32:31.868Z,101468.88
2022-08-25T20:35:01.206Z,101465.22
2022-08-25T20:37:29.535Z,101474.13
2022-08-25T20:39:57.505Z,101473.53
2022-08-25T20:42:25.709Z,101478.22
2022-08-25T20:44:54.644Z,101471.31
2022-08-25T20:47:22.721Z,101468.09
2022-08-25T20:49:50.579Z,101473.19
2022-08-25T20:52:20.830Z,101477.47
2022-08-25T20:54:50.985Z,101482.31
2022-08-25T20:57:24.331Z,101476.38
2022-08-25T20:59:54.060Z,101480.56
2022-08-25T21:02:21.999Z,101481.03
2022-08-25T21:04:50.411Z,101476.31
2022-08-25T21:07:20.049Z,101471.06
2022-08-25T21:09:48.726Z,101472.31
2022-08-25T21:12:17.211Z,101469.78
2022-08-25T21:14:45.235Z,101467.63
2022-08-25T21:17:16.109Z,101466.13
2022-08-25T21:22:21.270Z,101462.88
2022-08-25T21:24:49.509Z,101467.41
2022-08-25T21:27:17.288Z,101468.94
2022-08-25T21:29:54.477Z,101472.88
2022-08-25T21:32:23.493Z,101472.00
2022-08-25T21:34:52.998Z,101471.13
2022-08-25T21:37:23.600Z,101472.53
2022-08-25T21:39:51.807Z,101471.78
2022-08-25T21:42:19.809Z,101475.47
2022-08-25T21:44:47.803Z,101473.53
2022-08-25T21:47:15.789Z,101464.19
2022-08-25T21:49:49.536Z,101467.47
2022-08-25T21:52:17.798Z,101478.03
2022-08-25T21:54:47.431Z,101472.66
2022-08-25T21:57:17.841Z,101481.09
2022-08-25T21:59:46.964Z,101476.97
2022-08-25T22:02:19.252Z,101482.78
2022-08-25T22:04:52.883Z,101480.19
2022-08-25T22:07:22.058Z,101490.25
2022-08-25T22:09:54.567Z,101486.69
2022-08-25T22:12:23.141Z,101486.50
2022-08-25T22:14:52.805Z,101487.38
2022-08-25T22:17:24.260Z,101495.47
2022-08-25T22:19:53.638Z,101497.09
2022-08-25T22:22:22.289Z,101493.22
2022-08-25T22:24:50.384Z,101497.63
2022-08-25T22:27:20.971Z,101500.44
2022-08-25T22:29:51.630Z,101508.88
2022-08-25T22:32:19.634Z,101508.13
2022-08-25T22:34:48.258Z,101503.16
2022-08-25T22:37:17.795Z,101509.53
2022-08-25T22:39:46.349Z,101499.91
2022-08-25T22:42:14.138Z,101498.16
2022-08-25T22:44:43.433Z,101504.13
2022-08-25T22:47:12.329Z,101497.75
2022-08-25T22:49:40.327Z,101496.47
2022-08-25T22:52:09.351Z,101497.75
2022-08-25T22:54:41.053Z,101502.06
2022-08-25T22:57:08.810Z,101497.84
2022-08-25T22:59:38.165Z,101498.59
2022-08-25T23:02:07.722Z,101498.16
2022-08-25T23:04:41.531Z,101499.25
2022-08-25T23:07:11.662Z,101499.78
2022-08-25T23:09:39.431Z,101494.66
2022-08-25T23:12:07.770Z,101495.25
2022-08-25T23:14:36.575Z,101494.91
2022-08-25T23:17:04.725Z,101490.88
2022-08-25T23:19:37.673Z,101494.47
2022-08-25T23:22:11.058Z,101493.50
2022-08-25T23:24:42.766Z,101491.03
2022-08-25T23:27:13.056Z,101496.00
2022-08-25T23:29:43.375Z,101486.69
2022-08-25T23:32:14.059Z,101485.63
2022-08-25T23:34:46.665Z,101496.63
2022-08-25T23:37:15.334Z,101496.75
2022-08-25T23:39:45.478Z,101488.78
2022-08-25T23:42:13.320Z,101494.38
2022-08-25T23:44:41.198Z,101492.81
2022-08-25T23:47:08.927Z,101495.91
2022-08-25T23:49:40.195Z,101495.75
2022-08-25T23:52:09.391Z,101488.41
2022-08-25T23:54:37.139Z,101482.78
2022-08-25T23:57:06.819Z,101492.44
2022-08-25T23:59:34.904Z,101493.84
